Time;durP1;ratioP1;P1;durP2;ratioP2;P2;SDS_P1;SDS_P2;PMS_P1;PMS_P2;Temp;Humidity;BMP_temperature;BMP_pressure;BME280_temperature;BME280_humidity;BME280_pressure;Samples;Min_cycle;Max_cycle;Signal;HPM_P1;HPM_P2
2024/03/02 00:01:02;;;;;;;26.95;18.85;;;;;;;7.81;100.00;96951.91;1195564;75;5272923;-64
2024/03/02 00:03:35;;;;;;;30.60;22.20;;;;;;;7.74;100.00;96949.56;1224428;75;2958560;-65
2024/03/02 00:06:10;;;;;;;26.55;18.70;;;;;;;7.85;100.00;96949.72;1198010;75;5002816;-65
2024/03/02 00:08:45;;;;;;;21.45;15.90;;;;;;;7.98;100.00;96950.13;1224216;75;2915274;-64
2024/03/02 00:11:18;;;;;;;20.15;15.30;;;;;;;7.85;100.00;96960.63;1222919;75;2920730;-64
2024/03/02 00:13:52;;;;;;;19.40;15.35;;;;;;;7.82;100.00;96965.06;1224159;75;2878889;-64
2024/03/02 00:16:25;;;;;;;18.60;14.40;;;;;;;7.89;100.00;96959.22;1224929;75;2912249;-63
2024/03/02 00:18:58;;;;;;;16.55;13.00;;;;;;;7.88;100.00;96954.97;1225145;75;2917435;-63
2024/03/02 00:21:33;;;;;;;16.50;12.85;;;;;;;7.93;100.00;96964.44;1222581;75;2920877;-64
2024/03/02 00:24:22;;;;;;;16.30;12.95;;;;;;;8.01;100.00;96953.88;1223049;75;2916401;-63
2024/03/02 00:26:55;;;;;;;16.85;12.10;;;;;;;7.89;100.00;96953.75;1224854;75;2915791;-65
2024/03/02 00:29:27;;;;;;;18.85;14.55;;;;;;;7.72;100.00;96960.19;1198104;75;4888740;-64
2024/03/02 00:32:01;;;;;;;21.80;15.80;;;;;;;7.82;100.00;96956.13;1224035;83;2921651;-61
2024/03/02 00:34:33;;;;;;;20.20;14.50;;;;;;;7.89;100.00;96953.75;1224582;75;2935539;-65
2024/03/02 00:37:06;;;;;;;16.40;12.80;;;;;;;8.02;100.00;96947.97;1223341;75;2916794;-64
2024/03/02 00:39:42;;;;;;;15.95;12.15;;;;;;;7.94;100.00;96959.75;1223868;75;2900804;-65
2024/03/02 00:42:16;;;;;;;16.30;11.35;;;;;;;7.85;100.00;96958.66;1222778;75;2919008;-64
2024/03/02 00:44:49;;;;;;;17.40;13.15;;;;;;;7.87;100.00;96953.47;1224745;75;2919669;-64
2024/03/02 00:47:22;;;;;;;16.85;11.95;;;;;;;7.98;100.00;96952.88;1224896;75;2917392;-64
2024/03/02 00:49:55;;;;;;;14.30;10.35;;;;;;;7.98;100.00;96954.84;1223661;75;2923539;-64
2024/03/02 00:52:29;;;;;;;25.25;17.35;;;;;;;7.62;100.00;96956.81;1224817;75;2914777;-61
2024/03/02 00:55:05;;;;;;;23.80;15.90;;;;;;;7.78;100.00;96961.75;1224817;75;2911079;-66
2024/03/02 00:57:38;;;;;;;19.25;14.10;;;;;;;7.99;100.00;96959.09;1223206;75;2920375;-65
2024/03/02 01:00:15;;;;;;;19.20;13.60;;;;;;;7.88;100.00;96956.94;1196863;75;5109990;-64
2024/03/02 01:02:47;;;;;;;19.05;14.05;;;;;;;7.90;100.00;96951.78;1224239;75;2922628;-66
2024/03/02 01:05:20;;;;;;;17.75;13.40;;;;;;;7.94;100.00;96951.56;1224990;75;2920309;-64
2024/03/02 01:07:53;;;;;;;17.55;13.10;;;;;;;7.90;100.00;96959.94;1225646;75;2925387;-64
2024/03/02 01:10:29;;;;;;;16.70;12.15;;;;;;;8.01;100.00;96951.16;1224109;75;2929478;-63
2024/03/02 01:13:02;;;;;;;14.75;11.45;;;;;;;8.06;100.00;96951.25;1222912;75;2918082;-65
2024/03/02 01:15:35;;;;;;;15.00;10.85;;;;;;;8.08;100.00;96940.63;1224500;75;2914279;-65
2024/03/02 01:18:08;;;;;;;14.50;11.35;;;;;;;8.10;100.00;96940.91;1190237;75;5672614;-65
2024/03/02 01:20:41;;;;;;;14.80;11.00;;;;;;;8.07;100.00;96938.38;1223561;75;2915905;-62
2024/03/02 01:23:14;;;;;;;13.65;9.65;;;;;;;8.06;100.00;96945.81;1188861;75;5946014;-64
2024/03/02 01:25:50;;;;;;;16.60;12.40;;;;;;;7.89;100.00;96955.75;1222801;75;2921596;-63
2024/03/02 01:28:23;;;;;;;16.55;11.80;;;;;;;7.96;100.00;96949.88;1224290;75;2877996;-65
2024/03/02 01:30:56;;;;;;;16.20;11.80;;;;;;;7.86;100.00;96943.03;1223491;75;2919334;-66
2024/03/02 01:33:29;;;;;;;18.70;13.30;;;;;;;7.79;100.00;96957.06;1225183;75;2920175;-63
2024/03/02 01:36:01;;;;;;;21.05;14.05;;;;;;;7.71;100.00;96951.25;1226459;75;2919370;-64
2024/03/02 01:38:35;;;;;;;31.80;20.90;;;;;;;7.60;100.00;96945.63;1224815;67;2914171;-65
2024/03/02 01:41:11;;;;;;;35.35;24.10;;;;;;;7.55;100.00;96946.31;1224256;75;2916647;-65
2024/03/02 01:43:44;;;;;;;34.25;23.95;;;;;;;7.61;100.00;96949.88;1225225;75;2917098;-66
2024/03/02 01:46:17;;;;;;;41.15;28.15;;;;;;;7.44;100.00;96947.66;1225867;75;2915051;-66
2024/03/02 01:48:50;;;;;;;39.30;27.40;;;;;;;7.62;100.00;96937.75;1225127;75;2930828;-67
2024/03/02 01:51:23;;;;;;;30.00;21.20;;;;;;;7.69;100.00;96938.09;1225017;75;2914568;-64
2024/03/02 01:53:55;;;;;;;30.50;20.85;;;;;;;7.60;100.00;96940.19;1225547;75;2920097;-64
2024/03/02 01:56:31;;;;;;;34.10;25.30;;;;;;;7.44;100.00;96941.47;1224666;75;2919065;-66
2024/03/02 01:59:04;;;;;;;36.65;25.55;;;;;;;7.46;100.00;96944.47;1225428;75;2914938;-65
2024/03/02 02:01:37;;;;;;;34.35;23.00;;;;;;;7.56;100.00;96945.09;1224215;75;2913407;-65
2024/03/02 02:04:10;;;;;;;35.00;25.35;;;;;;;7.53;100.00;96932.41;1224615;75;2925996;-63
2024/03/02 02:06:43;;;;;;;27.15;19.60;;;;;;;7.66;100.00;96941.78;1225195;75;2917958;-65
2024/03/02 02:09:18;;;;;;;26.05;18.40;;;;;;;7.60;100.00;96951.84;1225304;75;2914416;-64
2024/03/02 02:11:55;;;;;;;21.95;16.15;;;;;;;7.61;100.00;96937.00;1224597;75;2916397;-65
2024/03/02 02:14:28;;;;;;;28.30;19.40;;;;;;;7.53;100.00;96933.19;1224746;75;2916287;-64
2024/03/02 02:17:01;;;;;;;29.90;21.15;;;;;;;7.45;100.00;96935.53;1224669;75;2917311;-64
2024/03/02 02:19:34;;;;;;;27.50;19.90;;;;;;;7.58;100.00;96929.78;1224979;75;2912453;-65
2024/03/02 02:22:09;;;;;;;25.20;18.05;;;;;;;7.58;100.00;96929.03;1223398;75;2923172;-64
2024/03/02 02:24:44;;;;;;;23.60;17.85;;;;;;;7.64;100.00;96927.88;1222755;75;2925987;-64
2024/03/02 02:27:17;;;;;;;23.05;16.85;;;;;;;7.73;100.00;96918.84;1224076;75;2915379;-65
2024/03/02 02:29:50;;;;;;;18.45;13.35;;;;;;;7.92;100.00;96918.59;1224494;75;2925232;-64
2024/03/02 02:32:23;;;;;;;13.05;10.70;;;;;;;7.99;100.00;96908.06;1225221;75;2920429;-62
2024/03/02 02:34:57;;;;;;;16.15;12.50;;;;;;;7.78;100.00;96910.00;1225744;67;2924789;-63
2024/03/02 02:37:32;;;;;;;22.00;15.95;;;;;;;7.71;100.00;96912.38;1224698;75;2917311;-65
2024/03/02 02:40:06;;;;;;;27.65;20.35;;;;;;;7.66;100.00;96916.53;1225221;75;2916428;-65
2024/03/02 02:42:38;;;;;;;22.60;16.65;;;;;;;7.90;100.00;96908.91;1224730;75;2923273;-65
2024/03/02 02:45:13;;;;;;;26.60;18.15;;;;;;;7.66;100.00;96917.25;1224238;75;2913872;-64
2024/03/02 02:47:46;;;;;;;22.85;17.10;;;;;;;7.82;100.00;96905.09;1225402;75;2914293;-63
2024/03/02 02:50:19;;;;;;;32.90;23.15;;;;;;;7.39;100.00;96907.47;1225070;75;2919083;-64
2024/03/02 02:52:54;;;;;;;37.90;26.10;;;;;;;7.63;100.00;96923.66;1225377;75;2915646;-64
2024/03/02 02:55:27;;;;;;;33.05;24.10;;;;;;;7.57;100.00;96913.91;1225169;75;2920905;-64
2024/03/02 02:58:00;;;;;;;31.20;22.35;;;;;;;7.52;100.00;96912.59;1224744;75;2919948;-65
2024/03/02 03:00:33;;;;;;;27.15;20.05;;;;;;;7.49;100.00;96912.81;1224607;75;2919571;-64
2024/03/02 03:03:06;;;;;;;37.90;26.00;;;;;;;7.35;100.00;96915.06;1224216;75;2931282;-65
2024/03/02 03:05:39;;;;;;;35.80;25.45;;;;;;;7.31;100.00;96909.09;1223109;75;2920707;-65
2024/03/02 03:08:15;;;;;;;32.55;22.60;;;;;;;7.36;100.00;96907.66;1225282;75;2931335;-64
2024/03/02 03:10:48;;;;;;;34.85;23.85;;;;;;;7.35;100.00;96906.16;1225090;75;2918846;-63
2024/03/02 03:13:21;;;;;;;36.75;26.25;;;;;;;7.17;100.00;96902.44;1224636;75;2926078;-64
2024/03/02 03:15:54;;;;;;;38.75;26.70;;;;;;;7.19;100.00;96904.66;1225143;75;2922852;-65
2024/03/02 03:18:27;;;;;;;35.50;25.45;;;;;;;7.29;100.00;96905.31;1224967;75;2915902;-64
2024/03/02 03:21:00;;;;;;;28.15;20.00;;;;;;;7.42;100.00;96903.78;1223822;75;2921037;-64
2024/03/02 03:23:35;;;;;;;30.90;21.00;;;;;;;7.41;100.00;96901.56;1224536;75;2935890;-65
2024/03/02 03:26:08;;;;;;;31.65;22.80;;;;;;;7.34;100.00;96904.69;1223820;75;2920389;-64
2024/03/02 03:28:41;;;;;;;34.70;23.95;;;;;;;7.32;100.00;96905.13;1224426;75;2913591;-65
2024/03/02 03:31:14;;;;;;;32.35;21.80;;;;;;;7.46;100.00;96914.50;1224678;75;2927991;-63
2024/03/02 03:33:47;;;;;;;28.70;21.25;;;;;;;7.36;100.00;96908.44;1225097;75;2923672;-64
2024/03/02 03:36:20;;;;;;;32.05;21.90;;;;;;;7.55;100.00;96919.06;1224965;75;2924152;-64
2024/03/02 03:38:55;;;;;;;23.20;16.00;;;;;;;7.68;100.00;96901.19;1225437;75;2922192;-64
2024/03/02 03:41:28;;;;;;;28.00;19.30;;;;;;;7.38;100.00;96913.38;1223252;75;2914644;-66
2024/03/02 03:44:00;;;;;;;25.45;18.35;;;;;;;7.44;100.00;96912.25;1222454;75;3051841;-66
2024/03/02 03:46:33;;;;;;;28.35;18.50;;;;;;;7.42;100.00;96914.69;1225085;75;2920363;-65
2024/03/02 03:49:07;;;;;;;25.45;17.90;;;;;;;7.45;100.00;96910.28;1225576;75;2923058;-65
2024/03/02 03:51:40;;;;;;;20.90;15.10;;;;;;;7.58;100.00;96899.81;1224432;75;2922918;-67
2024/03/02 03:54:15;;;;;;;26.80;19.35;;;;;;;7.25;100.00;96900.06;1225617;75;2914414;-63
2024/03/02 03:56:48;;;;;;;33.50;22.80;;;;;;;7.36;100.00;96897.53;1224890;75;2918964;-65
2024/03/02 03:59:21;;;;;;;31.30;21.00;;;;;;;7.33;100.00;96900.44;1225421;75;2920131;-65
2024/03/02 04:01:54;;;;;;;36.45;23.85;;;;;;;7.19;100.00;96891.84;1224223;75;2916633;-64
2024/03/02 04:04:26;;;;;;;31.75;22.55;;;;;;;7.21;100.00;96904.94;1224611;75;2928811;-63
2024/03/02 04:06:59;;;;;;;39.05;25.50;;;;;;;7.23;100.00;96903.25;1225124;75;2913480;-66
2024/03/02 04:09:35;;;;;;;33.55;23.20;;;;;;;7.21;100.00;96900.25;1225029;75;2922004;-64
2024/03/02 04:12:08;;;;;;;33.95;22.40;;;;;;;7.16;100.00;96898.19;1224130;75;2919733;-66
2024/03/02 04:14:42;;;;;;;28.40;21.10;;;;;;;7.29;100.00;96894.41;1226207;75;2926779;-63
2024/03/02 04:17:15;;;;;;;23.80;17.45;;;;;;;7.37;100.00;96895.56;1224807;75;2915802;-64
2024/03/02 04:19:47;;;;;;;22.85;16.40;;;;;;;7.31;100.00;96900.94;1223591;75;2920147;-64
2024/03/02 04:22:20;;;;;;;21.85;16.00;;;;;;;7.45;100.00;96904.81;1224465;75;2920554;-63
2024/03/02 04:24:56;;;;;;;20.80;14.60;;;;;;;7.34;100.00;96905.41;1224572;75;2916705;-68
2024/03/02 04:27:29;;;;;;;22.80;16.30;;;;;;;7.29;100.00;96908.03;1223379;75;2926887;-66
2024/03/02 04:30:01;;;;;;;24.35;19.10;;;;;;;7.13;100.00;96909.28;1225277;75;2915833;-64
2024/03/02 04:32:36;;;;;;;23.85;17.90;;;;;;;7.28;100.00;96909.28;1225090;75;2916824;-65
2024/03/02 04:35:10;;;;;;;20.15;14.90;;;;;;;7.51;100.00;96915.81;1224578;75;2924175;-66
2024/03/02 04:37:43;;;;;;;20.80;14.35;;;;;;;7.45;100.00;96913.00;1225747;75;2912202;-64
2024/03/02 04:40:19;;;;;;;19.45;14.80;;;;;;;7.29;100.00;96916.97;1225707;75;2918078;-63
2024/03/02 04:42:52;;;;;;;20.45;14.35;;;;;;;7.31;100.00;96919.22;1225487;75;2915231;-65
2024/03/02 04:45:25;;;;;;;21.30;15.90;;;;;;;7.29;100.00;96925.16;1224541;75;2918390;-65
2024/03/02 04:47:57;;;;;;;20.10;15.35;;;;;;;7.43;100.00;96920.88;1224971;75;2919656;-65
2024/03/02 04:50:30;;;;;;;18.45;14.05;;;;;;;7.36;100.00;96921.25;1224901;75;2923980;-64
2024/03/02 04:53:03;;;;;;;16.60;12.75;;;;;;;7.49;100.00;96927.16;1225449;75;2916730;-64
2024/03/02 04:56:09;;;;;;;14.95;11.25;;;;;;;7.52;100.00;96931.66;1225931;75;2918891;-64
2024/03/02 04:58:41;;;;;;;11.85;9.65;;;;;;;7.61;100.00;96933.53;1225479;75;2913678;-66
2024/03/02 05:01:13;;;;;;;12.10;9.55;;;;;;;7.64;100.00;96938.03;1225910;75;2908982;-65
2024/03/02 05:03:46;;;;;;;15.60;11.65;;;;;;;7.41;100.00;96939.69;1225645;75;2920063;-66
2024/03/02 05:06:19;;;;;;;17.60;12.65;;;;;;;7.59;100.00;96942.16;1224679;75;2912188;-66
2024/03/02 05:08:52;;;;;;;16.75;12.30;;;;;;;7.45;100.00;96942.94;1227002;75;2915715;-64
2024/03/02 05:14:18;;;;;;;21.20;15.90;;;;;;;7.58;100.00;96940.69;1223815;75;2920666;-65
2024/03/02 05:16:51;;;;;;;15.30;12.15;;;;;;;7.64;100.00;96938.78;1223885;75;2918520;-64
2024/03/02 05:19:23;;;;;;;15.15;11.90;;;;;;;7.57;100.00;96950.06;1224100;83;2928788;-65
2024/03/02 05:21:56;;;;;;;16.85;12.30;;;;;;;7.61;100.00;96947.91;1223492;75;2919089;-64
2024/03/02 05:24:30;;;;;;;17.20;13.15;;;;;;;7.57;100.00;96946.59;1225093;75;2918333;-65
2024/03/02 05:27:06;;;;;;;15.55;11.60;;;;;;;7.71;100.00;96950.50;1224758;75;2916285;-65
2024/03/02 05:29:39;;;;;;;25.40;19.45;;;;;;;7.41;100.00;96951.31;1224068;75;2910930;-66
2024/03/02 05:32:11;;;;;;;24.85;18.65;;;;;;;7.47;100.00;96952.16;1224287;75;2919282;-65
2024/03/02 05:34:44;;;;;;;29.90;21.10;;;;;;;7.37;100.00;96952.72;1225905;83;2923233;-65
2024/03/02 05:37:17;;;;;;;32.10;22.55;;;;;;;7.36;100.00;96954.72;1223358;75;2920648;-63
2024/03/02 05:39:50;;;;;;;34.30;23.85;;;;;;;7.27;100.00;96949.38;1224424;75;2930523;-66
2024/03/02 05:42:25;;;;;;;31.20;21.30;;;;;;;7.30;100.00;96955.84;1223175;75;2916104;-67
2024/03/02 05:44:58;;;;;;;29.90;21.50;;;;;;;7.43;100.00;96959.78;1224768;75;2918786;-66
2024/03/02 05:47:32;;;;;;;31.45;20.60;;;;;;;7.37;100.00;96961.66;1224888;75;2912160;-65
2024/03/02 05:50:07;;;;;;;26.75;19.10;;;;;;;7.47;100.00;96956.84;1224461;75;2917801;-65
2024/03/02 05:52:39;;;;;;;27.75;20.60;;;;;;;7.35;100.00;96957.91;1223304;75;2945394;-66
2024/03/02 05:55:12;;;;;;;36.80;25.35;;;;;;;7.06;100.00;96955.94;1225822;75;2916157;-67
2024/03/02 05:58:02;;;;;;;40.30;28.45;;;;;;;6.94;100.00;96963.91;1225426;75;2914480;-65
2024/03/02 06:00:35;;;;;;;31.60;23.10;;;;;;;7.23;100.00;96967.84;1225717;75;2922844;-65
2024/03/02 06:03:09;;;;;;;34.70;23.55;;;;;;;7.09;100.00;96955.72;1223494;75;2911904;-65
2024/03/02 06:05:42;;;;;;;28.65;19.75;;;;;;;7.36;100.00;96967.56;1224885;75;2915700;-65
2024/03/02 06:08:15;;;;;;;27.95;19.85;;;;;;;7.10;100.00;96964.66;1225586;75;2913777;-66
2024/03/02 06:10:48;;;;;;;37.15;24.75;;;;;;;6.92;100.00;96963.59;1223523;75;2916652;-66
2024/03/02 06:13:25;;;;;;;32.60;23.20;;;;;;;7.09;100.00;96974.03;1224311;75;2928215;-63
2024/03/02 06:15:58;;;;;;;33.65;22.25;;;;;;;7.14;100.00;96984.28;1224317;75;2933078;-64
2024/03/02 06:18:31;;;;;;;29.60;21.20;;;;;;;7.10;100.00;96975.56;1223606;75;2918057;-64
2024/03/02 06:21:03;;;;;;;32.25;23.20;;;;;;;6.84;100.00;96986.97;1225101;75;2918270;-65
2024/03/02 06:23:37;;;;;;;27.85;20.00;;;;;;;7.25;100.00;96985.22;1224835;75;2924943;-64
2024/03/02 06:26:10;;;;;;;22.85;16.20;;;;;;;7.38;100.00;96986.91;1224618;75;2920497;-65
2024/03/02 06:28:45;;;;;;;23.60;17.80;;;;;;;7.14;100.00;96985.00;1225256;75;2916232;-65
2024/03/02 06:31:18;;;;;;;29.35;19.65;;;;;;;7.00;100.00;96993.94;1223500;75;2918518;-66
2024/03/02 06:33:51;;;;;;;33.10;22.50;;;;;;;6.86;100.00;96994.69;1224000;75;2934471;-68
2024/03/02 06:36:24;;;;;;;30.35;21.35;;;;;;;7.12;100.00;96992.16;1224420;75;2913021;-65
2024/03/02 06:38:57;;;;;;;27.20;18.60;;;;;;;7.28;100.00;96994.41;1224877;75;2919735;-64
2024/03/02 06:41:30;;;;;;;19.45;14.15;;;;;;;7.33;100.00;96993.75;1224886;75;2914617;-66
2024/03/02 06:44:06;;;;;;;28.60;19.00;;;;;;;7.00;100.00;96991.22;1225696;75;2914743;-64
2024/03/02 06:46:39;;;;;;;24.75;16.65;;;;;;;7.06;100.00;96989.34;1224667;75;2929654;-64
2024/03/02 06:49:12;;;;;;;30.50;21.65;;;;;;;6.96;100.00;96985.94;1224361;75;2918698;-63
2024/03/02 06:51:45;;;;;;;38.15;24.65;;;;;;;6.88;100.00;96993.00;1224358;75;2922163;-65
2024/03/02 06:54:17;;;;;;;33.95;23.95;;;;;;;7.03;100.00;96987.56;1225109;75;2915941;-64
2024/03/02 06:56:50;;;;;;;27.45;20.55;;;;;;;7.25;100.00;96993.38;1224810;75;2875134;-64
2024/03/02 06:59:26;;;;;;;30.45;21.10;;;;;;;7.34;100.00;96989.06;1224819;75;2920849;-63
2024/03/02 07:01:58;;;;;;;29.00;20.45;;;;;;;7.46;100.00;96980.59;1224515;75;2919822;-63
2024/03/02 07:04:31;;;;;;;26.35;19.80;;;;;;;7.41;100.00;96981.28;1224295;75;2909814;-62
2024/03/02 07:07:04;;;;;;;31.95;23.30;;;;;;;7.24;100.00;96986.44;1225427;75;2912236;-65
2024/03/02 07:09:37;;;;;;;28.75;21.25;;;;;;;7.60;100.00;96983.78;1224430;75;2922746;-67
2024/03/02 07:12:11;;;;;;;32.15;23.35;;;;;;;7.57;100.00;96985.47;1224122;75;2917948;-66
2024/03/02 07:15:11;;;;;;;27.50;20.60;;;;;;;7.84;100.00;96981.69;1224980;75;2913141;-64
2024/03/02 07:17:44;;;;;;;36.40;24.65;;;;;;;7.25;100.00;96982.50;1225933;75;2916694;-64
2024/03/02 07:20:17;;;;;;;32.50;22.60;;;;;;;7.46;100.00;96977.13;1224518;75;2917582;-67
2024/03/02 07:22:50;;;;;;;36.40;25.40;;;;;;;7.26;100.00;96977.78;1223941;75;2917310;-63
2024/03/02 07:25:22;;;;;;;58.55;43.80;;;;;;;7.42;100.00;96985.50;1225260;75;2966766;-65
2024/03/02 07:27:56;;;;;;;40.95;31.35;;;;;;;7.50;100.00;96977.69;1223799;75;2921467;-65
2024/03/02 07:30:31;;;;;;;30.75;23.95;;;;;;;7.98;100.00;96973.94;1224547;75;2927278;-64
2024/03/02 07:33:04;;;;;;;27.90;20.50;;;;;;;7.86;100.00;96979.25;1225078;75;2922238;-65
2024/03/02 07:35:37;;;;;;;29.80;21.85;;;;;;;8.22;100.00;96977.22;1223377;75;2924001;-65
2024/03/02 07:38:12;;;;;;;27.75;19.45;;;;;;;8.22;100.00;96979.19;1196850;75;5045997;-65
2024/03/02 07:40:45;;;;;;;25.05;17.20;;;;;;;8.53;100.00;96979.38;1223120;75;2915806;-66
2024/03/02 07:43:19;;;;;;;23.45;16.30;;;;;;;8.69;100.00;96980.06;1223721;75;2920581;-64
2024/03/02 07:45:55;;;;;;;29.80;21.80;;;;;;;8.72;100.00;96973.63;1224038;75;2916559;-63
2024/03/02 07:48:30;;;;;;;37.65;25.35;;;;;;;8.53;100.00;96975.91;1224492;75;2919809;-63
2024/03/02 07:51:03;;;;;;;36.90;25.30;;;;;;;8.19;100.00;96978.19;1224950;75;2922880;-67
2024/03/02 07:53:36;;;;;;;32.05;21.95;;;;;;;8.58;100.00;96980.66;1225085;75;2918478;-67
2024/03/02 07:56:09;;;;;;;34.20;22.40;;;;;;;8.60;100.00;96977.47;1224821;75;2920971;-64
2024/03/02 07:58:42;;;;;;;29.15;21.30;;;;;;;8.62;100.00;96978.47;1225185;75;2926462;-65
2024/03/02 08:01:18;;;;;;;31.50;21.30;;;;;;;8.65;100.00;96979.50;1225102;75;2931203;-64
2024/03/02 08:03:52;;;;;;;35.45;23.45;;;;;;;8.63;100.00;96984.69;1224450;75;2912064;-63
2024/03/02 08:06:27;;;;;;;36.60;24.05;;;;;;;8.67;100.00;96980.53;1221826;75;2924426;-64
2024/03/02 08:09:00;;;;;;;34.05;22.70;;;;;;;8.64;100.00;96978.75;1224285;75;2915317;-64
2024/03/02 08:11:33;;;;;;;35.05;23.80;;;;;;;8.58;100.00;96982.66;1225101;75;2921027;-64
2024/03/02 08:14:06;;;;;;;37.20;24.45;;;;;;;8.42;100.00;96979.25;1225461;75;2915022;-64
2024/03/02 08:16:42;;;;;;;31.80;21.55;;;;;;;9.23;100.00;96988.53;1223738;75;2920478;-66
2024/03/02 08:19:15;;;;;;;31.75;21.40;;;;;;;9.39;100.00;96985.19;1225010;75;2912875;-63
2024/03/02 08:21:48;;;;;;;30.95;22.15;;;;;;;9.85;100.00;96974.59;1224420;75;2916650;-65
2024/03/02 08:24:20;;;;;;;30.05;21.15;;;;;;;9.82;100.00;96977.06;1225041;75;2918617;-64
2024/03/02 08:26:53;;;;;;;36.95;23.85;;;;;;;9.48;100.00;96978.81;1225769;75;2917793;-68
2024/03/02 08:29:26;;;;;;;32.65;23.00;;;;;;;9.60;100.00;96982.41;1224377;75;2924853;-66
2024/03/02 08:32:01;;;;;;;33.05;22.75;;;;;;;9.65;100.00;96970.00;1223503;75;2929570;-65
2024/03/02 08:34:35;;;;;;;33.65;22.25;;;;;;;9.97;100.00;96976.91;1225578;75;2915580;-67
2024/03/02 08:37:08;;;;;;;32.70;24.05;;;;;;;9.60;100.00;96977.66;1225044;75;2921533;-65
2024/03/02 08:39:41;;;;;;;33.75;22.60;;;;;;;9.63;100.00;96977.94;1224652;75;2919599;-64
2024/03/02 08:42:14;;;;;;;28.75;20.80;;;;;;;9.90;100.00;96979.38;1223942;75;2919117;-67
2024/03/02 08:44:47;;;;;;;29.35;21.30;;;;;;;9.79;100.00;96977.31;1224870;75;2922197;-66
2024/03/02 08:47:23;;;;;;;34.60;22.90;;;;;;;10.17;100.00;96973.31;1225010;75;2923794;-65
2024/03/02 08:49:56;;;;;;;35.85;22.30;;;;;;;9.99;100.00;96971.72;1225155;75;2923907;-66
2024/03/02 08:52:29;;;;;;;31.65;21.90;;;;;;;9.63;100.00;96975.22;1223445;75;2930245;-67
2024/03/02 08:55:01;;;;;;;30.00;20.55;;;;;;;9.70;100.00;96975.50;1224692;75;2918800;-66
2024/03/02 08:57:35;;;;;;;27.15;19.20;;;;;;;9.44;100.00;96970.09;1223524;83;2925322;-65
2024/03/02 09:00:10;;;;;;;27.80;20.05;;;;;;;9.55;100.00;96972.19;1223362;75;2926164;-65
2024/03/02 09:02:46;;;;;;;29.95;19.40;;;;;;;10.04;100.00;96970.25;1224764;75;2916360;-66
2024/03/02 09:05:19;;;;;;;31.00;21.45;;;;;;;9.53;100.00;96960.97;1223866;75;2914580;-64
2024/03/02 09:07:52;;;;;;;30.25;20.75;;;;;;;10.02;100.00;96961.78;1224529;75;2915636;-64
2024/03/02 09:10:25;;;;;;;29.10;19.25;;;;;;;10.38;100.00;96964.97;1225419;75;2914716;-65
2024/03/02 09:12:58;;;;;;;31.35;19.85;;;;;;;10.57;100.00;96968.03;1224256;75;2933492;-67
2024/03/02 09:15:30;;;;;;;29.05;20.05;;;;;;;10.48;100.00;96968.25;1224852;75;2914225;-64
2024/03/02 09:18:07;;;;;;;29.25;19.30;;;;;;;10.83;100.00;96962.41;1226125;75;2912025;-65
2024/03/02 09:20:39;;;;;;;30.00;19.85;;;;;;;10.49;100.00;96969.75;1225378;75;2923965;-65
2024/03/02 09:23:12;;;;;;;30.00;19.95;;;;;;;10.73;100.00;96969.34;1225291;75;2925036;-64
2024/03/02 09:25:45;;;;;;;30.10;20.65;;;;;;;10.72;100.00;96970.56;1226761;75;2917215;-64
2024/03/02 09:28:19;;;;;;;30.80;21.95;;;;;;;10.88;100.00;96976.09;1225523;75;2918691;-64
2024/03/02 09:30:51;;;;;;;27.10;18.70;;;;;;;10.99;100.00;96974.63;1224597;75;2916255;-68
2024/03/02 09:33:27;;;;;;;27.15;18.30;;;;;;;10.64;100.00;96975.78;1226178;75;2915186;-66
2024/03/02 09:36:00;;;;;;;23.40;17.10;;;;;;;11.04;100.00;96974.66;1225536;75;2914684;-66
2024/03/02 09:38:35;;;;;;;28.30;19.20;;;;;;;10.47;100.00;96980.44;1226138;75;2921734;-69
2024/03/02 09:41:08;;;;;;;28.30;18.00;;;;;;;10.65;100.00;96969.81;1225275;75;2913496;-64
2024/03/02 09:43:41;;;;;;;25.30;18.05;;;;;;;10.31;100.00;96970.91;1223984;75;2920850;-65
2024/03/02 09:46:14;;;;;;;27.50;19.60;;;;;;;9.99;100.00;96968.25;1224853;75;2920439;-66
2024/03/02 09:48:49;;;;;;;27.65;18.70;;;;;;;9.77;100.00;96975.06;1224995;75;2914219;-63
2024/03/02 09:51:23;;;;;;;27.50;20.15;;;;;;;9.73;100.00;96973.78;1225371;75;2922594;-64
2024/03/02 09:53:57;;;;;;;29.15;18.60;;;;;;;10.23;100.00;96971.34;1225173;75;2925938;-65
2024/03/02 09:56:30;;;;;;;29.65;19.25;;;;;;;10.40;100.00;96971.44;1225934;75;2920211;-64
2024/03/02 09:59:03;;;;;;;26.25;18.20;;;;;;;9.96;100.00;96975.44;1224189;75;2915158;-66
2024/03/02 10:01:35;;;;;;;27.20;18.95;;;;;;;9.94;100.00;96966.22;1226186;75;2903406;-65
2024/03/02 10:04:11;;;;;;;22.55;15.50;;;;;;;10.51;100.00;96968.03;1225972;75;2913044;-63
2024/03/02 10:06:44;;;;;;;28.10;17.55;;;;;;;10.20;100.00;96972.34;1225869;75;2919468;-64
2024/03/02 10:09:31;;;;;;;28.40;19.75;;;;;;;10.26;100.00;96977.09;1223968;75;2922617;-64
2024/03/02 10:12:11;;;;;;;25.95;18.40;;;;;;;10.33;100.00;96971.91;1224408;75;2918607;-65
2024/03/02 10:14:44;;;;;;;29.50;20.30;;;;;;;10.62;100.00;96965.31;1225718;75;2915636;-64
2024/03/02 10:17:20;;;;;;;23.65;16.40;;;;;;;11.88;100.00;96975.91;1224318;75;2925285;-65
2024/03/02 10:19:55;;;;;;;28.25;19.20;;;;;;;11.45;100.00;96965.22;1224071;75;2917306;-64
2024/03/02 10:22:28;;;;;;;27.00;18.35;;;;;;;11.79;99.64;96965.19;1224084;75;2921531;-61
2024/03/02 10:25:02;;;;;;;23.10;15.50;;;;;;;11.98;97.08;96968.16;1224901;75;2912158;-65
2024/03/02 10:27:37;;;;;;;24.65;15.35;;;;;;;12.93;91.31;96969.81;1225063;75;2912954;-64
2024/03/02 10:30:14;;;;;;;18.20;13.15;;;;;;;13.87;84.82;96953.13;1224448;75;2918950;-65
2024/03/02 10:32:47;;;;;;;14.95;10.85;;;;;;;15.07;77.05;96960.22;1224567;75;2925105;-63
2024/03/02 10:35:25;;;;;;;17.90;13.50;;;;;;;14.68;74.80;96950.50;1225664;75;2939705;-64
2024/03/02 10:37:58;;;;;;;22.50;13.90;;;;;;;15.16;73.58;96953.59;1224973;75;2929229;-67
2024/03/02 10:40:31;;;;;;;21.15;15.30;;;;;;;13.96;77.27;96946.53;1224088;75;2917421;-66
2024/03/02 10:43:07;;;;;;;21.25;15.55;;;;;;;15.66;73.88;96946.53;1225413;75;2925000;-65
2024/03/02 10:45:40;;;;;;;23.05;17.90;;;;;;;14.82;75.16;96948.56;1224058;75;2920223;-66
2024/03/02 10:48:13;;;;;;;17.60;13.00;;;;;;;15.13;70.71;96941.59;1224884;75;2924591;-67
2024/03/02 10:50:48;;;;;;;17.55;11.85;;;;;;;16.05;68.12;96942.38;1224667;75;2921491;-65
2024/03/02 10:53:21;;;;;;;12.50;9.15;;;;;;;16.29;66.28;96938.66;1224655;75;2945443;-64
2024/03/02 10:56:04;;;;;;;15.75;11.65;;;;;;;15.97;66.73;96939.50;1224696;75;2923292;-65
2024/03/02 10:58:38;;;;;;;15.10;9.55;;;;;;;16.76;63.99;96935.19;1224210;75;2918702;-65
2024/03/02 11:01:14;;;;;;;14.35;10.10;;;;;;;16.36;64.47;96929.72;1224918;75;2918135;-66
2024/03/02 11:03:48;;;;;;;13.55;9.85;;;;;;;16.43;66.74;96919.28;1224590;75;2925336;-65
2024/03/02 11:06:26;;;;;;;11.00;8.05;;;;;;;17.60;62.35;96913.13;1223800;75;2942894;-65
2024/03/02 11:09:05;;;;;;;16.45;9.95;;;;;;;16.58;65.60;96920.22;1223930;75;2924925;-67
2024/03/02 11:11:46;;;;;;;14.50;10.20;;;;;;;16.06;63.63;96913.47;1223967;75;2939174;-66
2024/03/02 11:14:25;;;;;;;16.15;9.35;;;;;;;16.90;61.21;96913.78;1224576;75;2914685;-65
2024/03/02 11:16:58;;;;;;;13.40;8.65;;;;;;;15.85;62.37;96915.38;1224428;75;2847685;-66
2024/03/02 11:19:32;;;;;;;13.90;7.80;;;;;;;18.15;59.62;96906.69;1224911;75;2912215;-65
2024/03/02 11:22:08;;;;;;;14.50;8.70;;;;;;;17.48;59.43;96906.41;1223839;67;2921729;-65
2024/03/02 11:24:41;;;;;;;13.85;8.55;;;;;;;17.95;58.88;96899.94;1224607;75;2906750;-64
2024/03/02 11:27:15;;;;;;;11.25;8.10;;;;;;;17.10;59.41;96906.06;1224818;75;2921740;-66
2024/03/02 11:29:49;;;;;;;11.05;7.25;;;;;;;17.89;57.66;96888.25;1224989;75;2909382;-66
2024/03/02 11:32:26;;;;;;;8.70;6.45;;;;;;;18.94;55.98;96885.78;1224468;75;2915233;-66
2024/03/02 11:34:59;;;;;;;10.45;7.10;;;;;;;18.21;56.26;96885.13;1224377;75;2915993;-67